sensor_id;sensor_type;location;lat;lon;timestamp;pressure;altitude;pressure_sealevel;temperature;humidity
20825;BME280;10573;50.936;6.978;2023-06-22T00:02:15;101316.81;;;25.06;48.15
20825;BME280;10573;50.936;6.978;2023-06-22T00:04:40;101314.38;;;25.17;47.73
20825;BME280;10573;50.936;6.978;2023-06-22T00:07:06;101316.81;;;25.06;47.91
20825;BME280;10573;50.936;6.978;2023-06-22T00:09:31;101316.34;;;25.09;47.71
20825;BME280;10573;50.936;6.978;2023-06-22T00:11:57;101320.66;;;25.05;48.06
20825;BME280;10573;50.936;6.978;2023-06-22T00:14:22;101334.31;;;25.13;47.74
20825;BME280;10573;50.936;6.978;2023-06-22T00:16:48;101333.81;;;24.98;47.88
20825;BME280;10573;50.936;6.978;2023-06-22T00:19:15;101328.69;;;24.95;47.94
20825;BME280;10573;50.936;6.978;2023-06-22T00:21:40;101326.53;;;24.97;48.06
20825;BME280;10573;50.936;6.978;2023-06-22T00:24:06;101334.81;;;24.78;48.36
20825;BME280;10573;50.936;6.978;2023-06-22T00:26:31;101331.47;;;24.95;48.20
20825;BME280;10573;50.936;6.978;2023-06-22T00:28:57;101332.91;;;25.04;48.03
20825;BME280;10573;50.936;6.978;2023-06-22T00:31:22;101340.94;;;24.94;48.30
20825;BME280;10573;50.936;6.978;2023-06-22T00:33:48;101333.47;;;24.88;48.09
20825;BME280;10573;50.936;6.978;2023-06-22T00:36:16;101327.97;;;25.06;48.21
20825;BME280;10573;50.936;6.978;2023-06-22T00:38:43;101324.59;;;24.98;48.16
20825;BME280;10573;50.936;6.978;2023-06-22T00:41:09;101332.34;;;24.95;48.13
20825;BME280;10573;50.936;6.978;2023-06-22T00:43:35;101334.91;;;24.97;47.84
20825;BME280;10573;50.936;6.978;2023-06-22T00:46:00;101333.88;;;24.91;48.20
20825;BME280;10573;50.936;6.978;2023-06-22T00:48:26;101336.31;;;24.81;48.34
20825;BME280;10573;50.936;6.978;2023-06-22T00:50:52;101339.03;;;24.88;47.94
20825;BME280;10573;50.936;6.978;2023-06-22T00:53:19;101330.56;;;25.01;47.92
20825;BME280;10573;50.936;6.978;2023-06-22T00:55:45;101331.41;;;25.02;47.90
20825;BME280;10573;50.936;6.978;2023-06-22T00:58:17;101335.38;;;24.94;47.87
20825;BME280;10573;50.936;6.978;2023-06-22T01:00:47;101332.72;;;24.99;47.77
20825;BME280;10573;50.936;6.978;2023-06-22T01:03:13;101339.94;;;25.07;47.75
20825;BME280;10573;50.936;6.978;2023-06-22T01:05:40;101328.81;;;25.07;47.83
20825;BME280;10573;50.936;6.978;2023-06-22T01:08:29;101320.91;;;25.04;47.56
20825;BME280;10573;50.936;6.978;2023-06-22T01:11:10;101321.66;;;24.92;47.76
20825;BME280;10573;50.936;6.978;2023-06-22T01:13:45;101315.78;;;25.01;47.83
20825;BME280;10573;50.936;6.978;2023-06-22T01:16:31;101318.13;;;25.04;47.56
20825;BME280;10573;50.936;6.978;2023-06-22T01:21:41;101315.56;;;25.02;47.65
20825;BME280;10573;50.936;6.978;2023-06-22T01:24:26;101315.09;;;25.05;47.91
20825;BME280;10573;50.936;6.978;2023-06-22T01:29:20;101312.13;;;25.00;47.83
20825;BME280;10573;50.936;6.978;2023-06-22T01:31:47;101304.41;;;25.02;48.23
20825;BME280;10573;50.936;6.978;2023-06-22T01:34:14;101295.09;;;24.90;47.92
20825;BME280;10573;50.936;6.978;2023-06-22T01:36:41;101291.53;;;25.01;48.03
20825;BME280;10573;50.936;6.978;2023-06-22T01:39:08;101292.72;;;24.87;47.95
20825;BME280;10573;50.936;6.978;2023-06-22T01:41:37;101288.25;;;24.86;48.35
20825;BME280;10573;50.936;6.978;2023-06-22T01:44:05;101287.34;;;24.92;48.36
20825;BME280;10573;50.936;6.978;2023-06-22T01:46:34;101285.41;;;24.92;47.89
20825;BME280;10573;50.936;6.978;2023-06-22T01:49:02;101275.34;;;24.91;48.28
20825;BME280;10573;50.936;6.978;2023-06-22T01:51:27;101279.63;;;24.94;48.08
20825;BME280;10573;50.936;6.978;2023-06-22T01:53:53;101282.22;;;24.89;48.27
20825;BME280;10573;50.936;6.978;2023-06-22T01:56:18;101275.84;;;24.82;48.16
20825;BME280;10573;50.936;6.978;2023-06-22T01:59:24;101276.72;;;24.82;48.22
20825;BME280;10573;50.936;6.978;2023-06-22T02:02:01;101281.88;;;24.78;48.21
20825;BME280;10573;50.936;6.978;2023-06-22T02:05:15;101275.75;;;24.70;48.16
20825;BME280;10573;50.936;6.978;2023-06-22T02:07:23;101280.25;;;24.64;48.36
20825;BME280;10573;50.936;6.978;2023-06-22T02:09:51;101281.09;;;24.71;48.41
20825;BME280;10573;50.936;6.978;2023-06-22T02:12:21;101280.91;;;24.66;48.79
20825;BME280;10573;50.936;6.978;2023-06-22T02:14:48;101276.81;;;24.69;48.89
20825;BME280;10573;50.936;6.978;2023-06-22T02:17:13;101275.13;;;24.61;49.13
20825;BME280;10573;50.936;6.978;2023-06-22T02:19:42;101273.00;;;24.63;49.19
20825;BME280;10573;50.936;6.978;2023-06-22T02:22:07;101274.53;;;24.59;49.24
20825;BME280;10573;50.936;6.978;2023-06-22T02:24:33;101273.97;;;24.75;48.86
20825;BME280;10573;50.936;6.978;2023-06-22T02:27:00;101279.09;;;24.78;49.34
20825;BME280;10573;50.936;6.978;2023-06-22T02:29:25;101279.38;;;24.70;48.85
20825;BME280;10573;50.936;6.978;2023-06-22T02:31:52;101271.31;;;24.62;48.94
20825;BME280;10573;50.936;6.978;2023-06-22T02:34:18;101268.31;;;24.57;49.03
20825;BME280;10573;50.936;6.978;2023-06-22T02:36:48;101268.75;;;24.54;49.09
20825;BME280;10573;50.936;6.978;2023-06-22T02:39:21;101262.09;;;24.55;49.20
20825;BME280;10573;50.936;6.978;2023-06-22T02:41:54;101259.75;;;24.52;49.14
20825;BME280;10573;50.936;6.978;2023-06-22T02:44:20;101270.06;;;24.51;49.23
20825;BME280;10573;50.936;6.978;2023-06-22T02:46:47;101255.84;;;24.59;49.43
20825;BME280;10573;50.936;6.978;2023-06-22T02:49:12;101255.00;;;24.59;49.27
20825;BME280;10573;50.936;6.978;2023-06-22T02:51:44;101262.84;;;24.43;49.43
20825;BME280;10573;50.936;6.978;2023-06-22T02:54:09;101259.75;;;24.52;49.30
20825;BME280;10573;50.936;6.978;2023-06-22T02:56:35;101258.34;;;24.42;49.24
20825;BME280;10573;50.936;6.978;2023-06-22T02:59:02;101251.31;;;24.33;49.70
20825;BME280;10573;50.936;6.978;2023-06-22T03:01:28;101254.66;;;24.49;49.84
20825;BME280;10573;50.936;6.978;2023-06-22T03:03:58;101249.94;;;24.49;49.52
20825;BME280;10573;50.936;6.978;2023-06-22T03:06:23;101245.03;;;24.44;49.58
20825;BME280;10573;50.936;6.978;2023-06-22T03:08:57;101238.84;;;24.42;49.44
20825;BME280;10573;50.936;6.978;2023-06-22T03:11:22;101239.75;;;24.36;50.05
20825;BME280;10573;50.936;6.978;2023-06-22T03:13:48;101237.75;;;24.43;49.62
20825;BME280;10573;50.936;6.978;2023-06-22T03:16:13;101246.91;;;24.51;49.76
20825;BME280;10573;50.936;6.978;2023-06-22T03:18:39;101238.78;;;24.49;49.66
20825;BME280;10573;50.936;6.978;2023-06-22T03:21:04;101248.72;;;24.38;49.61
20825;BME280;10573;50.936;6.978;2023-06-22T03:23:30;101247.00;;;24.37;49.91
20825;BME280;10573;50.936;6.978;2023-06-22T03:25:55;101246.75;;;24.45;49.95
20825;BME280;10573;50.936;6.978;2023-06-22T03:28:21;101244.41;;;24.42;50.08
20825;BME280;10573;50.936;6.978;2023-06-22T03:30:47;101250.25;;;24.34;50.31
20825;BME280;10573;50.936;6.978;2023-06-22T03:33:13;101239.66;;;24.50;50.28
20825;BME280;10573;50.936;6.978;2023-06-22T03:35:38;101234.47;;;24.53;50.23
20825;BME280;10573;50.936;6.978;2023-06-22T03:38:03;101227.16;;;24.59;50.06
20825;BME280;10573;50.936;6.978;2023-06-22T03:40:29;101225.44;;;24.58;50.17
20825;BME280;10573;50.936;6.978;2023-06-22T03:42:55;101219.66;;;24.27;51.00
20825;BME280;10573;50.936;6.978;2023-06-22T03:45:21;101236.31;;;24.34;50.96
20825;BME280;10573;50.936;6.978;2023-06-22T03:47:46;101224.13;;;24.35;50.87
20825;BME280;10573;50.936;6.978;2023-06-22T03:50:11;101225.13;;;24.41;50.60
20825;BME280;10573;50.936;6.978;2023-06-22T03:52:37;101224.25;;;24.47;50.88
20825;BME280;10573;50.936;6.978;2023-06-22T03:55:03;101218.84;;;24.52;50.95
20825;BME280;10573;50.936;6.978;2023-06-22T03:57:28;101209.91;;;24.43;50.82
20825;BME280;10573;50.936;6.978;2023-06-22T03:59:56;101212.69;;;24.43;51.27
20825;BME280;10573;50.936;6.978;2023-06-22T04:02:22;101214.47;;;24.38;51.25
20825;BME280;10573;50.936;6.978;2023-06-22T04:04:47;101211.56;;;24.51;51.14
20825;BME280;10573;50.936;6.978;2023-06-22T04:07:13;101216.00;;;24.59;51.23
20825;BME280;10573;50.936;6.978;2023-06-22T04:09:38;101224.28;;;24.40;51.55
20825;BME280;10573;50.936;6.978;2023-06-22T04:12:04;101213.47;;;24.51;51.45
20825;BME280;10573;50.936;6.978;2023-06-22T04:14:29;101215.66;;;24.49;51.51
20825;BME280;10573;50.936;6.978;2023-06-22T04:16:55;101212.22;;;24.46;51.94
20825;BME280;10573;50.936;6.978;2023-06-22T04:19:20;101211.34;;;24.53;51.94
20825;BME280;10573;50.936;6.978;2023-06-22T04:21:46;101207.31;;;24.49;52.40
20825;BME280;10573;50.936;6.978;2023-06-22T04:24:13;101206.06;;;24.44;52.38
20825;BME280;10573;50.936;6.978;2023-06-22T04:26:39;101206.78;;;24.58;52.26
20825;BME280;10573;50.936;6.978;2023-06-22T04:29:07;101205.03;;;24.64;52.21
20825;BME280;10573;50.936;6.978;2023-06-22T04:31:35;101201.19;;;24.65;52.09
20825;BME280;10573;50.936;6.978;2023-06-22T04:34:05;101219.00;;;24.57;52.51
20825;BME280;10573;50.936;6.978;2023-06-22T04:36:40;101212.59;;;24.57;52.68
20825;BME280;10573;50.936;6.978;2023-06-22T04:39:10;101216.72;;;24.48;53.07
20825;BME280;10573;50.936;6.978;2023-06-22T04:41:36;101221.69;;;24.45;53.26
20825;BME280;10573;50.936;6.978;2023-06-22T04:44:09;101217.47;;;24.36;53.52
20825;BME280;10573;50.936;6.978;2023-06-22T04:46:35;101227.50;;;24.12;54.09
20825;BME280;10573;50.936;6.978;2023-06-22T04:49:09;101233.03;;;24.19;54.14
20825;BME280;10573;50.936;6.978;2023-06-22T04:51:42;101231.34;;;24.11;54.88
20825;BME280;10573;50.936;6.978;2023-06-22T04:54:09;101229.13;;;24.20;54.90
20825;BME280;10573;50.936;6.978;2023-06-22T04:56:34;101233.44;;;24.16;55.35
20825;BME280;10573;50.936;6.978;2023-06-22T04:59:00;101229.41;;;24.11;55.61
20825;BME280;10573;50.936;6.978;2023-06-22T05:01:26;101224.06;;;24.10;56.06
20825;BME280;10573;50.936;6.978;2023-06-22T05:03:52;101224.56;;;24.00;56.85
20825;BME280;10573;50.936;6.978;2023-06-22T05:06:26;101220.25;;;24.04;56.76
20825;BME280;10573;50.936;6.978;2023-06-22T05:08:56;101226.47;;;24.00;56.89
20825;BME280;10573;50.936;6.978;2023-06-22T05:11:28;101223.22;;;24.09;56.73
20825;BME280;10573;50.936;6.978;2023-06-22T05:13:54;101225.38;;;24.07;57.17
20825;BME280;10573;50.936;6.978;2023-06-22T05:16:21;101230.41;;;24.24;57.24
20825;BME280;10573;50.936;6.978;2023-06-22T05:18:51;101225.78;;;24.11;57.47
20825;BME280;10573;50.936;6.978;2023-06-22T05:21:17;101231.78;;;24.40;56.99
20825;BME280;10573;50.936;6.978;2023-06-22T05:23:42;101230.56;;;24.29;57.16
20825;BME280;10573;50.936;6.978;2023-06-22T05:26:08;101220.16;;;24.50;56.82
20825;BME280;10573;50.936;6.978;2023-06-22T05:28:35;101218.63;;;24.54;56.69
20825;BME280;10573;50.936;6.978;2023-06-22T05:31:00;101214.91;;;24.35;57.01
20825;BME280;10573;50.936;6.978;2023-06-22T05:33:26;101209.16;;;24.55;56.99
20825;BME280;10573;50.936;6.978;2023-06-22T05:35:51;101213.13;;;24.72;56.54
20825;BME280;10573;50.936;6.978;2023-06-22T05:38:17;101217.84;;;24.72;56.59
20825;BME280;10573;50.936;6.978;2023-06-22T05:40:42;101215.13;;;24.65;56.39
20825;BME280;10573;50.936;6.978;2023-06-22T05:43:08;101218.06;;;24.70;56.23
20825;BME280;10573;50.936;6.978;2023-06-22T05:45:33;101216.63;;;24.86;56.04
20825;BME280;10573;50.936;6.978;2023-06-22T05:47:58;101220.78;;;25.02;55.98
20825;BME280;10573;50.936;6.978;2023-06-22T05:50:24;101226.03;;;25.10;55.49
20825;BME280;10573;50.936;6.978;2023-06-22T05:52:49;101226.34;;;25.02;55.91
20825;BME280;10573;50.936;6.978;2023-06-22T05:55:15;101228.31;;;24.76;56.74
20825;BME280;10573;50.936;6.978;2023-06-22T05:57:40;101220.63;;;25.16;55.92
20825;BME280;10573;50.936;6.978;2023-06-22T06:00:06;101222.19;;;25.11;56.00
20825;BME280;10573;50.936;6.978;2023-06-22T06:02:36;101224.31;;;25.35;55.61
20825;BME280;10573;50.936;6.978;2023-06-22T06:05:01;101229.81;;;25.41;55.41
20825;BME280;10573;50.936;6.978;2023-06-22T06:07:28;101231.03;;;25.45;55.70
20825;BME280;10573;50.936;6.978;2023-06-22T06:09:55;101228.09;;;25.59;55.47
20825;BME280;10573;50.936;6.978;2023-06-22T06:12:20;101231.59;;;25.54;55.59
20825;BME280;10573;50.936;6.978;2023-06-22T06:14:45;101233.59;;;25.47;55.79
20825;BME280;10573;50.936;6.978;2023-06-22T06:17:12;101236.09;;;25.37;55.89
20825;BME280;10573;50.936;6.978;2023-06-22T06:19:37;101244.03;;;25.33;56.03
20825;BME280;10573;50.936;6.978;2023-06-22T06:22:03;101233.50;;;25.17;56.46
20825;BME280;10573;50.936;6.978;2023-06-22T06:24:28;101236.94;;;25.56;55.72
20825;BME280;10573;50.936;6.978;2023-06-22T06:26:54;101234.56;;;25.71;55.26
20825;BME280;10573;50.936;6.978;2023-06-22T06:29:20;101241.16;;;25.77;55.51
20825;BME280;10573;50.936;6.978;2023-06-22T06:31:45;101241.22;;;25.89;55.25
20825;BME280;10573;50.936;6.978;2023-06-22T06:34:11;101245.72;;;25.90;55.06
20825;BME280;10573;50.936;6.978;2023-06-22T06:36:36;101248.50;;;25.90;55.29
20825;BME280;10573;50.936;6.978;2023-06-22T06:39:02;101251.63;;;25.82;55.42
20825;BME280;10573;50.936;6.978;2023-06-22T06:41:28;101257.50;;;25.92;55.32
20825;BME280;10573;50.936;6.978;2023-06-22T06:43:54;101253.13;;;26.15;54.83
20825;BME280;10573;50.936;6.978;2023-06-22T06:46:19;101247.66;;;25.89;55.71
20825;BME280;10573;50.936;6.978;2023-06-22T06:48:45;101240.16;;;26.20;55.17
20825;BME280;10573;50.936;6.978;2023-06-22T06:51:10;101237.00;;;26.17;55.21
20825;BME280;10573;50.936;6.978;2023-06-22T06:53:37;101224.19;;;26.39;54.11
20825;BME280;10573;50.936;6.978;2023-06-22T06:56:02;101229.25;;;26.19;54.84
20825;BME280;10573;50.936;6.978;2023-06-22T06:58:28;101214.81;;;26.34;54.53
20825;BME280;10573;50.936;6.978;2023-06-22T07:00:54;101211.28;;;26.38;54.39
20825;BME280;10573;50.936;6.978;2023-06-22T07:03:19;101208.28;;;26.52;53.74
20825;BME280;10573;50.936;6.978;2023-06-22T07:05:45;101206.13;;;26.54;53.67
20825;BME280;10573;50.936;6.978;2023-06-22T07:08:10;101207.91;;;26.36;54.34
20825;BME280;10573;50.936;6.978;2023-06-22T07:10:36;101203.63;;;26.45;53.80
20825;BME280;10573;50.936;6.978;2023-06-22T07:13:02;101192.28;;;26.71;52.74
20825;BME280;10573;50.936;6.978;2023-06-22T07:15:27;101195.28;;;26.69;52.89
20825;BME280;10573;50.936;6.978;2023-06-22T07:17:52;101186.31;;;26.67;52.87
20825;BME280;10573;50.936;6.978;2023-06-22T07:20:18;101183.84;;;26.35;53.41
20825;BME280;10573;50.936;6.978;2023-06-22T07:22:45;101178.00;;;26.25;53.86
20825;BME280;10573;50.936;6.978;2023-06-22T07:25:10;101184.19;;;26.27;53.86
20825;BME280;10573;50.936;6.978;2023-06-22T07:27:43;101193.94;;;26.48;53.83
20825;BME280;10573;50.936;6.978;2023-06-22T07:30:10;101187.69;;;26.76;52.81
20825;BME280;10573;50.936;6.978;2023-06-22T07:32:36;101182.88;;;27.12;51.11
20825;BME280;10573;50.936;6.978;2023-06-22T07:35:02;101170.97;;;27.29;50.58
20825;BME280;10573;50.936;6.978;2023-06-22T07:37:28;101168.72;;;26.78;51.46
20825;BME280;10573;50.936;6.978;2023-06-22T07:39:54;101166.50;;;27.04;51.53
20825;BME280;10573;50.936;6.978;2023-06-22T07:42:27;101155.84;;;27.30;50.99
20825;BME280;10573;50.936;6.978;2023-06-22T07:44:54;101153.16;;;27.47;49.98
20825;BME280;10573;50.936;6.978;2023-06-22T07:47:20;101154.81;;;27.60;50.02
20825;BME280;10573;50.936;6.978;2023-06-22T07:49:46;101156.19;;;27.57;50.34
20825;BME280;10573;50.936;6.978;2023-06-22T07:52:12;101156.19;;;27.57;50.52
20825;BME280;10573;50.936;6.978;2023-06-22T07:54:37;101146.31;;;27.84;49.70
20825;BME280;10573;50.936;6.978;2023-06-22T07:57:03;101141.84;;;28.00;49.38
20825;BME280;10573;50.936;6.978;2023-06-22T07:59:29;101141.97;;;27.35;50.62
20825;BME280;10573;50.936;6.978;2023-06-22T08:01:55;101149.84;;;27.50;51.16
20825;BME280;10573;50.936;6.978;2023-06-22T08:04:20;101147.31;;;27.49;50.73
20825;BME280;10573;50.936;6.978;2023-06-22T08:06:46;101143.66;;;27.77;50.82
20825;BME280;10573;50.936;6.978;2023-06-22T08:09:11;101140.72;;;27.55;50.50
20825;BME280;10573;50.936;6.978;2023-06-22T08:11:37;101132.75;;;27.63;50.28
20825;BME280;10573;50.936;6.978;2023-06-22T08:14:03;101122.13;;;27.77;50.47
20825;BME280;10573;50.936;6.978;2023-06-22T08:16:28;101118.97;;;28.20;50.23
20825;BME280;10573;50.936;6.978;2023-06-22T08:18:54;101106.03;;;28.19;48.80
20825;BME280;10573;50.936;6.978;2023-06-22T08:21:20;101108.59;;;28.37;49.59
20825;BME280;10573;50.936;6.978;2023-06-22T08:23:45;101098.00;;;28.39;48.69
20825;BME280;10573;50.936;6.978;2023-06-22T08:26:10;101092.25;;;28.68;47.76
20825;BME280;10573;50.936;6.978;2023-06-22T08:28:36;101094.63;;;28.76;47.88
20825;BME280;10573;50.936;6.978;2023-06-22T08:31:02;101097.19;;;28.61;47.76
20825;BME280;10573;50.936;6.978;2023-06-22T08:33:28;101091.13;;;28.86;48.36
20825;BME280;10573;50.936;6.978;2023-06-22T08:35:56;101087.19;;;28.87;48.12
20825;BME280;10573;50.936;6.978;2023-06-22T08:38:21;101081.00;;;29.07;47.39
20825;BME280;10573;50.936;6.978;2023-06-22T08:40:47;101084.31;;;29.49;47.27
20825;BME280;10573;50.936;6.978;2023-06-22T08:43:12;101077.47;;;29.17;46.58
20825;BME280;10573;50.936;6.978;2023-06-22T08:45:37;101079.06;;;29.08;47.42
20825;BME280;10573;50.936;6.978;2023-06-22T08:48:03;101072.00;;;29.27;46.73
20825;BME280;10573;50.936;6.978;2023-06-22T08:50:28;101067.44;;;30.03;45.75
20825;BME280;10573;50.936;6.978;2023-06-22T08:52:54;101065.25;;;30.10;45.45
20825;BME280;10573;50.936;6.978;2023-06-22T08:55:19;101059.19;;;30.29;45.61
20825;BME280;10573;50.936;6.978;2023-06-22T08:57:45;101056.34;;;30.24;45.58
20825;BME280;10573;50.936;6.978;2023-06-22T09:00:11;101053.03;;;30.32;45.24
20825;BME280;10573;50.936;6.978;2023-06-22T09:02:44;101048.41;;;30.53;44.75
20825;BME280;10573;50.936;6.978;2023-06-22T09:05:09;101044.19;;;30.51;44.85
20825;BME280;10573;50.936;6.978;2023-06-22T09:07:35;101043.41;;;30.23;45.66
20825;BME280;10573;50.936;6.978;2023-06-22T09:10:00;101027.88;;;29.83;45.46
20825;BME280;10573;50.936;6.978;2023-06-22T09:12:26;101023.28;;;30.41;44.73
20825;BME280;10573;50.936;6.978;2023-06-22T09:14:53;101023.13;;;30.58;44.16
20825;BME280;10573;50.936;6.978;2023-06-22T09:17:18;101015.63;;;30.74;43.84
20825;BME280;10573;50.936;6.978;2023-06-22T09:19:44;101026.31;;;30.77;44.44
20825;BME280;10573;50.936;6.978;2023-06-22T09:22:10;101011.78;;;31.01;43.45
20825;BME280;10573;50.936;6.978;2023-06-22T09:24:35;101013.97;;;30.84;43.30
20825;BME280;10573;50.936;6.978;2023-06-22T09:27:01;101006.34;;;30.26;44.38
20825;BME280;10573;50.936;6.978;2023-06-22T09:29:26;101007.34;;;30.04;44.51
20825;BME280;10573;50.936;6.978;2023-06-22T09:31:51;101006.41;;;29.93;45.21
20825;BME280;10573;50.936;6.978;2023-06-22T09:34:19;100998.31;;;30.02;44.64
20825;BME280;10573;50.936;6.978;2023-06-22T09:36:48;100990.66;;;30.35;44.31
20825;BME280;10573;50.936;6.978;2023-06-22T09:39:14;100989.50;;;30.31;44.14
20825;BME280;10573;50.936;6.978;2023-06-22T09:41:39;100974.31;;;30.90;43.71
20825;BME280;10573;50.936;6.978;2023-06-22T09:44:05;100975.28;;;31.37;42.40
20825;BME280;10573;50.936;6.978;2023-06-22T09:46:30;100980.38;;;31.45;41.95
20825;BME280;10573;50.936;6.978;2023-06-22T09:48:56;100989.91;;;31.34;42.01
20825;BME280;10573;50.936;6.978;2023-06-22T09:51:22;100988.75;;;31.09;42.26
20825;BME280;10573;50.936;6.978;2023-06-22T09:53:49;100981.34;;;30.98;42.68
20825;BME280;10573;50.936;6.978;2023-06-22T09:56:15;100988.59;;;30.68;43.55
20825;BME280;10573;50.936;6.978;2023-06-22T09:58:44;100982.94;;;30.58;43.57
20825;BME280;10573;50.936;6.978;2023-06-22T10:01:11;100982.72;;;30.27;44.18
20825;BME280;10573;50.936;6.978;2023-06-22T10:03:37;100988.50;;;29.72;45.55
20825;BME280;10573;50.936;6.978;2023-06-22T10:06:03;100997.59;;;29.25;46.41
20825;BME280;10573;50.936;6.978;2023-06-22T10:08:28;100997.38;;;29.04;46.84
20825;BME280;10573;50.936;6.978;2023-06-22T10:10:54;101008.09;;;29.12;47.40
20825;BME280;10573;50.936;6.978;2023-06-22T10:13:19;101024.50;;;28.99;47.56
20825;BME280;10573;50.936;6.978;2023-06-22T10:15:45;101034.91;;;28.59;49.09
20825;BME280;10573;50.936;6.978;2023-06-22T10:18:15;101046.91;;;28.71;49.66
20825;BME280;10573;50.936;6.978;2023-06-22T10:20:41;101064.91;;;28.75;49.43
20825;BME280;10573;50.936;6.978;2023-06-22T10:23:07;101064.47;;;28.67;50.32
20825;BME280;10573;50.936;6.978;2023-06-22T10:25:32;101069.16;;;28.61;50.24
20825;BME280;10573;50.936;6.978;2023-06-22T10:27:58;101073.03;;;28.21;51.09
20825;BME280;10573;50.936;6.978;2023-06-22T10:30:23;101076.56;;;28.33;52.63
20825;BME280;10573;50.936;6.978;2023-06-22T10:32:49;101081.09;;;28.34;52.57
20825;BME280;10573;50.936;6.978;2023-06-22T10:35:14;101090.00;;;28.31;53.41
20825;BME280;10573;50.936;6.978;2023-06-22T10:37:45;101100.91;;;27.82;55.50
20825;BME280;10573;50.936;6.978;2023-06-22T10:40:12;101099.19;;;27.23;58.78
20825;BME280;10573;50.936;6.978;2023-06-22T10:42:38;101107.59;;;27.23;60.54
20825;BME280;10573;50.936;6.978;2023-06-22T10:45:04;101113.81;;;27.25;62.54
20825;BME280;10573;50.936;6.978;2023-06-22T10:47:29;101124.34;;;26.94;62.28
20825;BME280;10573;50.936;6.978;2023-06-22T10:49:55;101125.28;;;26.17;64.70
20825;BME280;10573;50.936;6.978;2023-06-22T10:52:20;101118.53;;;25.94;65.20
20825;BME280;10573;50.936;6.978;2023-06-22T10:54:46;101119.16;;;25.96;65.51
20825;BME280;10573;50.936;6.978;2023-06-22T10:57:11;101111.56;;;25.85;66.52
20825;BME280;10573;50.936;6.978;2023-06-22T10:59:36;101105.84;;;25.79;67.03
20825;BME280;10573;50.936;6.978;2023-06-22T11:02:02;101119.28;;;25.59;67.70
20825;BME280;10573;50.936;6.978;2023-06-22T11:04:28;101122.09;;;25.40;69.00
20825;BME280;10573;50.936;6.978;2023-06-22T11:06:53;101129.03;;;25.31;68.95
20825;BME280;10573;50.936;6.978;2023-06-22T11:09:18;101139.91;;;25.39;69.89
20825;BME280;10573;50.936;6.978;2023-06-22T11:11:51;101131.59;;;25.51;69.51
20825;BME280;10573;50.936;6.978;2023-06-22T11:14:20;101098.69;;;25.41;69.95
20825;BME280;10573;50.936;6.978;2023-06-22T11:16:45;101067.63;;;25.38;71.55
20825;BME280;10573;50.936;6.978;2023-06-22T11:19:12;101062.44;;;25.41;73.94
20825;BME280;10573;50.936;6.978;2023-06-22T11:21:38;101044.06;;;25.64;72.13
20825;BME280;10573;50.936;6.978;2023-06-22T11:24:09;101052.41;;;25.52;71.94
20825;BME280;10573;50.936;6.978;2023-06-22T11:26:35;101060.22;;;25.74;71.37
20825;BME280;10573;50.936;6.978;2023-06-22T11:29:01;101070.06;;;25.76;70.77
20825;BME280;10573;50.936;6.978;2023-06-22T11:31:30;101053.09;;;25.90;71.58
20825;BME280;10573;50.936;6.978;2023-06-22T11:33:55;101038.81;;;26.22;72.36
20825;BME280;10573;50.936;6.978;2023-06-22T11:36:21;101031.28;;;26.10;70.28
20825;BME280;10573;50.936;6.978;2023-06-22T11:38:46;101025.81;;;25.92;70.64
20825;BME280;10573;50.936;6.978;2023-06-22T11:41:12;100993.00;;;25.87;71.41
20825;BME280;10573;50.936;6.978;2023-06-22T11:43:37;100960.72;;;25.91;70.20
20825;BME280;10573;50.936;6.978;2023-06-22T11:46:03;100917.66;;;25.87;70.34
20825;BME280;10573;50.936;6.978;2023-06-22T11:48:29;100929.06;;;25.86;70.84
20825;BME280;10573;50.936;6.978;2023-06-22T11:50:55;100950.19;;;25.82;72.79
20825;BME280;10573;50.936;6.978;2023-06-22T11:53:22;100946.06;;;26.08;72.84
20825;BME280;10573;50.936;6.978;2023-06-22T11:55:47;100941.97;;;26.92;69.87
20825;BME280;10573;50.936;6.978;2023-06-22T11:58:13;100959.91;;;27.54;68.20
20825;BME280;10573;50.936;6.978;2023-06-22T12:00:38;100957.84;;;28.00;65.69
20825;BME280;10573;50.936;6.978;2023-06-22T12:03:03;100969.44;;;28.65;64.12
20825;BME280;10573;50.936;6.978;2023-06-22T12:05:29;100963.94;;;28.75;62.68
20825;BME280;10573;50.936;6.978;2023-06-22T12:07:54;100958.16;;;29.09;61.31
20825;BME280;10573;50.936;6.978;2023-06-22T12:10:20;100948.06;;;30.06;58.94
20825;BME280;10573;50.936;6.978;2023-06-22T12:12:45;100941.19;;;29.54;57.82
20825;BME280;10573;50.936;6.978;2023-06-22T12:15:10;100944.56;;;28.29;60.28
20825;BME280;10573;50.936;6.978;2023-06-22T12:17:36;100933.97;;;28.15;62.16
20825;BME280;10573;50.936;6.978;2023-06-22T12:20:01;100933.78;;;27.65;63.94
20825;BME280;10573;50.936;6.978;2023-06-22T12:22:30;100918.69;;;27.49;66.43
20825;BME280;10573;50.936;6.978;2023-06-22T12:24:55;100932.50;;;26.93;67.80
20825;BME280;10573;50.936;6.978;2023-06-22T12:27:21;100923.81;;;27.06;68.84
20825;BME280;10573;50.936;6.978;2023-06-22T12:29:46;100922.41;;;26.92;69.02
20825;BME280;10573;50.936;6.978;2023-06-22T12:32:12;100911.44;;;26.73;69.09
20825;BME280;10573;50.936;6.978;2023-06-22T12:34:39;100902.41;;;27.46;66.90
20825;BME280;10573;50.936;6.978;2023-06-22T12:37:05;100902.50;;;28.52;62.81
20825;BME280;10573;50.936;6.978;2023-06-22T12:39:34;100887.97;;;29.69;58.89
20825;BME280;10573;50.936;6.978;2023-06-22T12:41:59;100883.34;;;30.54;56.09
20825;BME280;10573;50.936;6.978;2023-06-22T12:44:25;100876.22;;;29.83;57.36
20825;BME280;10573;50.936;6.978;2023-06-22T12:46:50;100882.97;;;30.35;56.80
20825;BME280;10573;50.936;6.978;2023-06-22T12:49:16;100876.88;;;30.48;54.15
20825;BME280;10573;50.936;6.978;2023-06-22T12:51:42;100862.13;;;31.15;52.57
20825;BME280;10573;50.936;6.978;2023-06-22T12:54:09;100859.28;;;31.51;50.84